Strona główna
METAR-TAF:

METAR-TAF

Lotnisko :

Brooks Field

Marshall, Michigan, Stany Zjednoczone

Szerokość geograficzna: 42-15-04N, Długość geograficzna: 084-57-20W, wysokość: 287 m

Aktualna obserwacja pogody

Raport powstał 29 minut temu, godzina 08:35 UTC
Wiatr 10 kt od zachód w porywach dochodzący do 16 kt
Temperatura -2°C
Wilgotność 74%
Ciśnienie 1010 hPa
Widzialność: 16.1 km
Zachmurzenie całkowite na wysokości 2100 ft

METAR: KRMY 150835Z AUTO 27010G16KT 10SM OVC021 M02/M06 A2982 RMK AO2 T10201056

czas: 04:04 (09:04 UTC)


TAF: brakujący

Obserwacja i prognoza pogody dla ponad 4000 lotnisk (raport METAR i TAF).

Dostępne stacje oznaczono żółtymi i czerwonymi punktami na mapie.

Najedź kursorem aby zobaczyć nazwę stacji.

Kliknij aby zobaczyć obserwacje i prognozy pogody.

Aby zmienić mapę: kliknij na zielony przycisk z czarnym krzyżykiem, aby powiększyć; na zielony przycisk z myślnikiem, aby pomniejszyć; na zielone strzałki, aby przejść do map sąsiednich.


METAR-TAF: